Time;durP1;ratioP1;P1;durP2;ratioP2;P2;SDS_P1;SDS_P2;PMS_P1;PMS_P2;Temp;Humidity;BMP_temperature;BMP_pressure;BME280_temperature;BME280_humidity;BME280_pressure;Samples;Min_cycle;Max_cycle;Signal;HPM_P1;HPM_P2
2023/03/25 00:00:56;;;;;;;3.10;1.27;;;9.30;99.90;;;;;;5053848;28;20741;-61
2023/03/25 00:03:25;;;;;;;1.90;1.45;;;9.30;99.90;;;;;;5053523;28;20208;-63
2023/03/25 00:05:52;;;;;;;2.08;1.40;;;9.30;99.90;;;;;;5053046;28;20197;-63
2023/03/25 00:08:20;;;;;;;1.73;1.20;;;9.30;99.90;;;;;;5053506;28;20218;-62
2023/03/25 00:10:52;;;;;;;2.20;1.92;;;9.30;99.90;;;;;;5053601;28;20201;-62
2023/03/25 00:13:20;;;;;;;2.25;1.20;;;9.30;99.90;;;;;;5053554;28;20240;-62
2023/03/25 00:15:47;;;;;;;1.33;1.00;;;9.30;99.90;;;;;;5053624;28;20286;-62
2023/03/25 00:18:16;;;;;;;1.50;1.10;;;9.30;99.90;;;;;;5053250;28;20229;-62
2023/03/25 00:20:44;;;;;;;2.08;1.35;;;9.30;99.90;;;;;;5054039;28;20197;-63
2023/03/25 00:23:11;;;;;;;1.55;1.05;;;9.30;99.90;;;;;;5054378;28;20202;-60
2023/03/25 00:25:40;;;;;;;4.75;2.03;;;9.20;99.90;;;;;;5053776;28;20204;-63
2023/03/25 00:28:08;;;;;;;4.25;1.20;;;9.20;99.90;;;;;;5057391;28;20229;-62
2023/03/25 00:30:34;;;;;;;2.10;1.65;;;9.20;99.90;;;;;;5057514;28;20197;-63
2023/03/25 00:33:01;;;;;;;3.03;1.20;;;9.20;99.90;;;;;;5057792;28;20202;-62
2023/03/25 00:35:28;;;;;;;1.63;1.25;;;9.30;99.90;;;;;;5057528;28;20560;-63
2023/03/25 00:37:58;;;;;;;2.33;1.30;;;9.30;99.90;;;;;;5057328;28;20221;-63
2023/03/25 00:40:27;;;;;;;4.93;1.67;;;9.30;99.90;;;;;;5057740;28;20206;-62
2023/03/25 00:42:56;;;;;;;1.30;1.10;;;9.30;99.90;;;;;;5057563;28;20201;-62
2023/03/25 00:45:24;;;;;;;2.65;1.40;;;9.30;99.90;;;;;;5057151;28;20213;-62
2023/03/25 00:47:50;;;;;;;2.75;1.30;;;9.30;99.90;;;;;;5057666;28;20224;-62
2023/03/25 00:50:17;;;;;;;1.58;1.20;;;9.20;99.90;;;;;;5057513;28;20208;-61
2023/03/25 00:52:44;;;;;;;2.05;1.08;;;9.20;99.90;;;;;;5057274;28;20292;-62
2023/03/25 00:55:11;;;;;;;2.03;1.30;;;9.20;99.90;;;;;;5057159;28;20201;-62
2023/03/25 00:57:38;;;;;;;4.00;1.48;;;9.20;99.90;;;;;;5056385;28;20226;-61
2023/03/25 01:00:10;;;;;;;2.53;1.55;;;9.20;99.90;;;;;;5056807;28;20202;-62
2023/03/25 01:02:38;;;;;;;1.52;1.40;;;9.10;99.90;;;;;;5057038;28;20190;-61
2023/03/25 01:05:06;;;;;;;2.25;1.17;;;9.10;99.90;;;;;;5056790;28;20201;-62
2023/03/25 01:07:33;;;;;;;5.78;1.67;;;9.10;99.90;;;;;;5056587;28;20218;-62
2023/03/25 01:10:00;;;;;;;3.10;1.60;;;9.20;99.90;;;;;;5056710;28;20296;-63
2023/03/25 01:12:27;;;;;;;3.30;1.58;;;9.10;99.90;;;;;;5056105;28;20225;-62
2023/03/25 01:14:55;;;;;;;2.38;1.67;;;9.20;99.90;;;;;;5056596;28;20209;-63
2023/03/25 01:17:23;;;;;;;1.40;1.20;;;9.20;99.90;;;;;;5056263;28;20236;-62
2023/03/25 01:19:50;;;;;;;1.23;1.10;;;9.30;99.90;;;;;;5056221;28;20205;-62
2023/03/25 01:22:17;;;;;;;1.98;1.25;;;9.30;99.90;;;;;;5056302;28;20275;-63
2023/03/25 01:24:44;;;;;;;3.47;1.65;;;9.30;99.90;;;;;;5056489;28;20573;-62
2023/03/25 01:27:11;;;;;;;3.70;1.60;;;9.30;99.90;;;;;;5055992;28;20312;-63
2023/03/25 01:29:38;;;;;;;3.58;1.30;;;9.30;99.90;;;;;;5056093;28;20293;-62
2023/03/25 01:32:05;;;;;;;3.00;1.50;;;9.40;99.90;;;;;;5055912;28;20680;-62
2023/03/25 01:34:37;;;;;;;3.15;1.70;;;9.50;99.90;;;;;;5055977;28;20305;-61
2023/03/25 01:37:05;;;;;;;1.60;1.20;;;9.50;99.90;;;;;;5055874;28;20229;-62
2023/03/25 01:39:32;;;;;;;1.98;1.25;;;9.60;99.90;;;;;;5054961;28;20202;-61
2023/03/25 01:41:58;;;;;;;3.15;1.50;;;9.70;99.90;;;;;;5056040;28;20212;-61
2023/03/25 01:45:03;;;;;;;2.97;1.10;;;9.70;99.90;;;;;;5056135;28;20202;-62
2023/03/25 01:47:29;;;;;;;2.90;1.20;;;9.80;99.90;;;;;;5056317;28;20217;-62
2023/03/25 01:49:58;;;;;;;5.53;1.63;;;9.80;99.90;;;;;;5056430;28;20210;-63
2023/03/25 01:52:28;;;;;;;3.80;1.42;;;9.80;99.90;;;;;;5057762;28;20209;-63
2023/03/25 01:54:57;;;;;;;5.10;1.50;;;9.80;99.90;;;;;;5056887;28;20182;-62
2023/03/25 01:57:25;;;;;;;2.10;1.45;;;9.90;99.90;;;;;;5056126;28;20226;-62
2023/03/25 01:59:54;;;;;;;1.65;1.20;;;9.90;99.90;;;;;;5056263;28;20205;-62
2023/03/25 02:02:24;;;;;;;1.73;1.60;;;9.90;99.90;;;;;;5055734;28;20206;-61
2023/03/25 02:04:57;;;;;;;4.10;1.92;;;9.90;99.90;;;;;;5055674;28;20212;-63
2023/03/25 02:07:29;;;;;;;4.60;1.75;;;10.00;99.90;;;;;;5055773;28;20221;-62
2023/03/25 02:09:57;;;;;;;1.70;1.50;;;10.00;99.90;;;;;;5055479;28;20186;-63
2023/03/25 02:12:24;;;;;;;2.47;1.52;;;10.00;99.90;;;;;;5055385;28;20197;-60
2023/03/25 02:14:51;;;;;;;3.10;1.38;;;10.00;99.90;;;;;;5055866;28;20205;-61
2023/03/25 02:17:29;;;;;;;3.78;1.92;;;10.00;99.90;;;;;;5055481;28;20599;-61
2023/03/25 02:20:20;;;;;;;1.60;1.50;;;10.00;99.90;;;;;;5055168;28;20186;-62
2023/03/25 02:23:07;;;;;;;2.50;1.73;;;9.90;99.90;;;;;;5054562;28;20558;-62
2023/03/25 02:26:05;;;;;;;2.97;1.67;;;9.90;99.90;;;;;;5055150;28;20289;-62
2023/03/25 02:28:36;;;;;;;2.70;1.55;;;9.90;99.90;;;;;;5054346;28;20320;-62
2023/03/25 02:31:17;;;;;;;1.67;1.58;;;9.80;99.90;;;;;;5054980;28;20281;-62
2023/03/25 02:34:18;;;;;;;1.70;1.60;;;9.70;99.90;;;;;;5055237;28;20520;-62
2023/03/25 02:37:13;;;;;;;2.88;1.95;;;9.60;99.90;;;;;;5055153;28;20232;-63
2023/03/25 02:39:46;;;;;;;3.45;1.70;;;9.40;99.90;;;;;;5055156;28;20186;-64
2023/03/25 02:42:20;;;;;;;2.58;2.20;;;9.30;99.90;;;;;;5054943;28;20236;-62
2023/03/25 02:44:54;;;;;;;2.33;1.85;;;9.30;99.90;;;;;;5054489;28;20224;-62
2023/03/25 02:47:24;;;;;;;2.45;2.25;;;9.20;99.90;;;;;;5054922;28;20222;-62
2023/03/25 02:49:55;;;;;;;2.90;2.70;;;9.10;99.90;;;;;;5054123;28;20182;-63
2023/03/25 02:52:27;;;;;;;6.28;2.55;;;9.10;99.90;;;;;;5055104;28;20190;-63
2023/03/25 02:55:00;;;;;;;2.67;2.30;;;9.10;99.90;;;;;;5055032;28;20186;-63
2023/03/25 02:57:28;;;;;;;5.20;2.65;;;9.10;99.90;;;;;;5054484;28;20329;-61
2023/03/25 02:59:57;;;;;;;2.90;2.33;;;9.10;99.90;;;;;;5055333;28;20228;-62
2023/03/25 03:02:27;;;;;;;5.15;2.55;;;9.20;99.90;;;;;;5055680;28;20209;-62
2023/03/25 03:04:56;;;;;;;3.95;3.33;;;9.20;99.90;;;;;;5055021;28;20204;-62
2023/03/25 03:07:26;;;;;;;3.88;2.60;;;9.20;99.90;;;;;;5054403;28;20225;-62
2023/03/25 03:10:00;;;;;;;5.47;3.28;;;9.20;99.90;;;;;;5054080;28;20186;-62
2023/03/25 03:12:51;;;;;;;5.25;2.72;;;9.20;99.90;;;;;;5054366;28;20200;-62
2023/03/25 03:15:27;;;;;;;3.17;2.53;;;9.10;99.90;;;;;;5053755;28;20182;-62
2023/03/25 03:18:06;;;;;;;2.90;2.60;;;9.10;99.90;;;;;;5053876;28;20275;-63
2023/03/25 03:20:40;;;;;;;6.75;3.22;;;9.10;99.90;;;;;;5054052;28;20190;-62
2023/03/25 03:23:13;;;;;;;3.55;2.90;;;9.10;99.90;;;;;;5053605;28;20190;-62
2023/03/25 03:25:49;;;;;;;3.42;2.53;;;9.10;99.90;;;;;;5053683;28;20675;-63
2023/03/25 03:28:23;;;;;;;4.85;3.30;;;9.10;99.90;;;;;;5053524;28;20241;-63
2023/03/25 03:30:54;;;;;;;3.90;2.72;;;9.10;99.90;;;;;;5053381;28;20189;-62
2023/03/25 03:33:30;;;;;;;2.83;2.63;;;9.00;99.90;;;;;;5053736;28;20264;-63
2023/03/25 03:36:00;;;;;;;6.07;2.78;;;9.00;99.90;;;;;;5053986;28;20197;-63
2023/03/25 03:38:34;;;;;;;4.78;2.40;;;9.00;99.90;;;;;;5053529;28;20233;-63
2023/03/25 03:41:06;;;;;;;3.42;2.80;;;9.00;99.90;;;;;;5055293;28;20186;-62
2023/03/25 03:43:40;;;;;;;3.58;2.00;;;9.00;99.90;;;;;;5056428;28;20277;-63
2023/03/25 03:46:13;;;;;;;2.65;2.45;;;9.10;99.90;;;;;;5056430;28;20189;-63
2023/03/25 03:48:43;;;;;;;2.63;2.42;;;9.10;99.90;;;;;;5056552;28;20222;-61
2023/03/25 03:51:17;;;;;;;3.28;2.30;;;9.10;99.90;;;;;;5055178;28;20671;-62
2023/03/25 03:53:47;;;;;;;4.38;2.10;;;9.20;99.90;;;;;;5053383;28;20589;-61
2023/03/25 03:56:20;;;;;;;4.82;2.85;;;9.10;99.90;;;;;;5053215;28;20194;-61
2023/03/25 03:58:53;;;;;;;5.25;2.88;;;9.20;99.90;;;;;;5053530;28;20260;-61
2023/03/25 04:01:29;;;;;;;5.53;2.35;;;9.20;99.90;;;;;;5052949;28;20191;-62
2023/03/25 04:03:59;;;;;;;7.18;2.60;;;9.20;99.90;;;;;;5054452;28;20229;-62
2023/03/25 04:06:34;;;;;;;2.22;2.03;;;9.20;99.90;;;;;;5053304;28;20186;-61
2023/03/25 04:11:34;;;;;;;3.33;2.10;;;9.10;99.90;;;;;;5152414;27;20528;-64
2023/03/25 04:14:02;;;;;;;2.80;2.17;;;9.10;99.90;;;;;;5152337;27;20190;-63
2023/03/25 04:16:31;;;;;;;3.90;2.17;;;9.10;99.90;;;;;;5152150;27;20194;-64
2023/03/25 04:18:58;;;;;;;5.78;2.50;;;9.10;99.90;;;;;;5152258;27;20233;-63
2023/03/25 04:21:28;;;;;;;5.75;3.08;;;9.10;99.90;;;;;;5151805;27;20252;-63
2023/03/25 04:24:00;;;;;;;2.90;2.10;;;9.00;99.90;;;;;;5147301;22;20259;-66
2023/03/25 04:26:32;;;;;;;4.70;1.90;;;9.00;99.90;;;;;;5111305;28;20214;-66
2023/03/25 04:29:00;;;;;;;6.53;2.80;;;9.00;99.90;;;;;;5111110;28;20187;-66
2023/03/25 04:31:29;;;;;;;2.60;1.70;;;9.10;99.90;;;;;;5110197;28;20577;-66
2023/03/25 04:33:56;;;;;;;6.50;2.63;;;9.10;99.90;;;;;;5110578;28;20212;-66
2023/03/25 04:36:23;;;;;;;2.17;1.98;;;9.00;99.90;;;;;;5110532;28;20251;-66
2023/03/25 04:38:51;;;;;;;6.13;2.30;;;8.80;99.90;;;;;;5110418;28;20199;-66
2023/03/25 04:41:18;;;;;;;3.70;2.20;;;8.70;99.90;;;;;;5110439;28;20198;-66
2023/03/25 04:43:47;;;;;;;3.28;2.15;;;8.60;99.90;;;;;;5110289;28;20220;-66
2023/03/25 04:46:16;;;;;;;5.07;2.60;;;8.60;99.90;;;;;;5110327;28;20214;-66
2023/03/25 04:48:44;;;;;;;4.22;2.28;;;8.50;99.90;;;;;;5110258;28;20199;-65
2023/03/25 04:51:12;;;;;;;6.43;2.50;;;8.50;99.90;;;;;;5110093;28;20216;-66
2023/03/25 04:53:39;;;;;;;5.00;2.17;;;8.50;99.90;;;;;;5110770;28;20226;-66
2023/03/25 04:56:11;;;;;;;6.40;2.50;;;8.60;99.90;;;;;;5110461;28;20207;-66
2023/03/25 04:58:39;;;;;;;2.88;2.17;;;8.60;99.90;;;;;;5110248;28;20221;-65
2023/03/25 05:01:10;;;;;;;4.20;2.60;;;8.70;99.90;;;;;;5110131;28;20192;-66
2023/03/25 05:03:38;;;;;;;4.82;3.00;;;8.70;99.90;;;;;;5110519;28;20599;-66
2023/03/25 05:06:06;;;;;;;3.95;2.50;;;8.80;99.90;;;;;;5111440;28;20229;-66
2023/03/25 05:08:33;;;;;;;5.50;3.25;;;8.80;99.90;;;;;;5109698;28;20200;-66
2023/03/25 05:11:00;;;;;;;4.38;2.95;;;8.70;99.90;;;;;;5109728;28;20228;-65
2023/03/25 05:13:27;;;;;;;5.72;3.40;;;8.70;99.90;;;;;;5109841;28;20230;-66
2023/03/25 05:15:53;;;;;;;6.00;3.33;;;8.70;99.90;;;;;;5114681;28;20286;-66
2023/03/25 05:18:21;;;;;;;3.97;2.97;;;8.60;99.90;;;;;;5112854;28;20345;-66
2023/03/25 05:20:49;;;;;;;3.30;3.00;;;8.60;99.90;;;;;;5107953;28;20567;-65
2023/03/25 05:23:17;;;;;;;3.45;2.70;;;8.60;99.90;;;;;;5097110;28;20235;-66
2023/03/25 05:25:44;;;;;;;3.78;2.30;;;8.50;99.90;;;;;;5098566;28;20261;-66
2023/03/25 05:28:12;;;;;;;4.30;3.13;;;8.50;99.90;;;;;;5099277;28;20609;-65
2023/03/25 05:30:40;;;;;;;2.95;2.67;;;8.40;99.90;;;;;;5098869;28;20251;-66
2023/03/25 05:33:09;;;;;;;2.60;2.40;;;8.30;99.90;;;;;;5098982;28;20278;-65
2023/03/25 05:35:37;;;;;;;5.80;2.22;;;8.20;99.90;;;;;;5098830;28;20698;-65
2023/03/25 05:38:04;;;;;;;2.90;2.30;;;8.20;99.90;;;;;;5098733;28;20204;-66
2023/03/25 05:40:32;;;;;;;4.90;2.15;;;8.10;99.90;;;;;;5099865;28;20188;-65
2023/03/25 05:42:59;;;;;;;2.13;1.92;;;8.00;99.90;;;;;;5100034;28;20230;-66
2023/03/25 05:45:26;;;;;;;4.10;2.33;;;7.90;99.90;;;;;;5099835;28;20284;-66
2023/03/25 05:47:53;;;;;;;2.60;2.40;;;7.90;99.90;;;;;;5099194;28;20196;-65
2023/03/25 05:50:20;;;;;;;4.75;2.50;;;7.80;99.90;;;;;;5099900;28;20243;-65
2023/03/25 05:52:50;;;;;;;2.70;2.45;;;7.80;99.90;;;;;;5098372;28;20224;-66
2023/03/25 05:55:20;;;;;;;3.03;2.70;;;7.90;99.90;;;;;;5095937;28;20283;-65
2023/03/25 05:57:47;;;;;;;3.25;2.72;;;8.00;99.90;;;;;;5095873;28;20227;-65
2023/03/25 06:00:15;;;;;;;4.47;2.70;;;8.00;99.90;;;;;;5095893;28;20196;-65
2023/03/25 06:02:42;;;;;;;3.05;2.45;;;8.10;99.90;;;;;;5095095;28;20231;-66
2023/03/25 06:05:12;;;;;;;4.45;2.47;;;8.20;99.90;;;;;;5094884;28;20759;-65
2023/03/25 06:07:41;;;;;;;4.18;2.47;;;8.30;99.90;;;;;;5095572;28;20589;-66
2023/03/25 06:10:10;;;;;;;5.13;3.15;;;8.30;99.90;;;;;;5095338;28;20281;-66
2023/03/25 06:12:38;;;;;;;4.85;3.10;;;8.40;99.90;;;;;;5095559;28;20709;-65
2023/03/25 06:15:06;;;;;;;4.78;2.90;;;8.50;99.90;;;;;;5095864;28;20259;-65
2023/03/25 06:17:37;;;;;;;4.20;3.53;;;8.60;99.90;;;;;;5095406;28;20201;-65
2023/03/25 06:20:09;;;;;;;3.58;2.83;;;8.60;99.90;;;;;;5094875;28;20184;-65
2023/03/25 06:22:37;;;;;;;6.43;3.35;;;8.70;99.90;;;;;;5075364;28;20264;-65
2023/03/25 06:25:05;;;;;;;3.28;2.67;;;8.80;99.90;;;;;;5079970;28;20647;-65
2023/03/25 06:27:39;;;;;;;2.42;2.22;;;8.80;99.90;;;;;;5088353;28;20235;-65
2023/03/25 06:30:07;;;;;;;3.08;2.78;;;8.90;99.90;;;;;;5094530;28;20216;-65
2023/03/25 06:32:34;;;;;;;3.08;2.17;;;9.00;99.90;;;;;;5093830;28;20588;-65
2023/03/25 06:35:01;;;;;;;3.67;2.92;;;9.10;99.90;;;;;;5094484;28;20229;-66
2023/03/25 06:37:28;;;;;;;3.60;2.00;;;9.20;99.90;;;;;;5094664;28;20599;-66
2023/03/25 06:39:55;;;;;;;5.82;2.90;;;9.20;99.90;;;;;;5093969;28;20189;-65
2023/03/25 06:42:22;;;;;;;4.25;2.30;;;9.30;99.90;;;;;;5094629;28;20204;-67
2023/03/25 06:44:50;;;;;;;2.92;2.42;;;9.40;99.90;;;;;;5094462;28;20254;-66
2023/03/25 06:47:17;;;;;;;3.08;2.38;;;9.40;99.90;;;;;;5094365;28;20215;-67
2023/03/25 06:49:44;;;;;;;5.70;2.40;;;9.50;99.90;;;;;;5094341;28;20210;-66
2023/03/25 06:52:11;;;;;;;4.15;2.90;;;9.50;99.90;;;;;;5094779;28;20248;-65
2023/03/25 06:54:38;;;;;;;3.92;2.70;;;9.50;99.90;;;;;;5095048;28;20212;-66
2023/03/25 06:57:06;;;;;;;4.25;2.15;;;9.60;99.90;;;;;;5094430;28;20200;-66
2023/03/25 06:59:33;;;;;;;5.33;2.57;;;9.60;99.90;;;;;;5094332;28;20578;-66
2023/03/25 07:02:01;;;;;;;2.70;2.50;;;9.60;99.90;;;;;;5094525;28;20473;-66
2023/03/25 07:04:27;;;;;;;3.10;2.50;;;9.70;99.90;;;;;;5093869;28;20231;-67
2023/03/25 07:06:54;;;;;;;3.60;2.60;;;9.70;99.90;;;;;;5093396;28;20974;-65
2023/03/25 07:09:21;;;;;;;4.15;2.70;;;9.70;99.90;;;;;;5094158;28;20924;-67
2023/03/25 07:11:48;;;;;;;3.20;2.33;;;9.70;99.90;;;;;;5094018;28;20239;-67
2023/03/25 07:14:15;;;;;;;3.15;1.70;;;9.80;99.90;;;;;;5093652;28;20469;-67
2023/03/25 07:16:41;;;;;;;2.80;2.60;;;9.90;99.90;;;;;;5093976;28;20223;-66
2023/03/25 07:19:10;;;;;;;3.40;2.20;;;9.90;99.90;;;;;;5094221;28;20968;-68
2023/03/25 07:21:36;;;;;;;4.37;2.70;;;10.10;99.90;;;;;;5094162;28;20449;-68
2023/03/25 07:24:03;;;;;;;3.60;2.37;;;10.30;99.90;;;;;;5093356;28;20492;-67
2023/03/25 07:26:30;;;;;;;3.57;2.67;;;10.50;99.90;;;;;;5093306;28;20955;-66
2023/03/25 07:28:57;;;;;;;2.60;2.40;;;10.50;99.90;;;;;;5094090;28;20438;-68
2023/03/25 07:31:24;;;;;;;3.47;2.67;;;10.50;99.90;;;;;;5093710;28;20482;-68
2023/03/25 07:33:51;;;;;;;6.20;2.47;;;10.60;99.90;;;;;;5094663;28;20498;-68
2023/03/25 07:36:20;;;;;;;4.37;2.43;;;10.70;99.90;;;;;;5095364;28;20449;-68
2023/03/25 07:38:47;;;;;;;2.00;1.90;;;10.70;99.90;;;;;;5095077;28;20450;-68
2023/03/25 07:41:14;;;;;;;2.50;2.30;;;10.70;99.90;;;;;;5095337;28;20826;-67
2023/03/25 07:43:42;;;;;;;2.57;2.37;;;10.70;99.90;;;;;;5095171;28;20466;-68
2023/03/25 07:46:08;;;;;;;3.87;2.50;;;10.60;99.90;;;;;;5094275;28;20488;-68
2023/03/25 07:48:36;;;;;;;4.23;2.33;;;10.40;99.90;;;;;;5093789;28;20978;-68
2023/03/25 07:51:03;;;;;;;3.67;2.60;;;10.10;99.90;;;;;;5094318;28;20870;-69
2023/03/25 07:53:31;;;;;;;3.90;2.90;;;9.70;99.90;;;;;;5093498;28;20232;-69
2023/03/25 07:55:58;;;;;;;5.28;2.70;;;9.30;99.90;;;;;;5093787;28;20227;-66
2023/03/25 07:58:25;;;;;;;7.88;2.63;;;9.10;99.90;;;;;;5093759;28;20295;-66
2023/03/25 08:00:52;;;;;;;3.08;2.40;;;9.00;99.90;;;;;;5094139;28;20290;-66
2023/03/25 08:03:18;;;;;;;4.10;2.80;;;9.00;99.90;;;;;;5095308;28;20588;-67
2023/03/25 08:05:47;;;;;;;3.85;2.58;;;9.10;99.90;;;;;;5093375;28;20685;-66
2023/03/25 08:08:14;;;;;;;2.45;2.25;;;9.20;99.90;;;;;;5093714;28;20204;-66
2023/03/25 08:10:43;;;;;;;4.18;2.95;;;9.30;99.90;;;;;;5093812;28;20222;-66
2023/03/25 08:13:11;;;;;;;4.40;3.08;;;9.40;99.90;;;;;;5093036;28;20224;-66
2023/03/25 08:15:38;;;;;;;3.90;3.43;;;9.60;99.90;;;;;;5093120;28;20200;-67
2023/03/25 08:18:05;;;;;;;2.43;2.17;;;9.60;99.90;;;;;;5093236;28;20821;-67
2023/03/25 08:20:32;;;;;;;7.57;2.20;;;9.80;99.90;;;;;;5094725;28;20945;-66
2023/03/25 08:22:59;;;;;;;2.78;2.45;;;9.90;99.90;;;;;;5094713;28;20506;-66
2023/03/25 08:25:26;;;;;;;2.60;2.00;;;9.90;99.90;;;;;;5096523;28;20287;-67
2023/03/25 08:27:55;;;;;;;3.27;2.20;;;10.00;99.90;;;;;;5092638;28;20446;-67
2023/03/25 08:30:22;;;;;;;3.33;2.33;;;10.00;99.90;;;;;;5092240;28;20461;-67
2023/03/25 08:32:53;;;;;;;2.00;1.80;;;10.00;99.90;;;;;;5092723;28;20987;-67
2023/03/25 08:35:20;;;;;;;2.53;1.97;;;9.90;99.90;;;;;;5093478;28;20472;-67
2023/03/25 08:37:47;;;;;;;5.43;2.00;;;9.90;99.90;;;;;;5093249;28;20830;-66
2023/03/25 08:40:15;;;;;;;3.87;2.60;;;9.90;99.90;;;;;;5094045;28;20539;-64
2023/03/25 08:42:42;;;;;;;2.53;1.87;;;10.00;99.90;;;;;;5094082;28;20465;-67
2023/03/25 08:45:14;;;;;;;3.63;2.17;;;10.10;99.90;;;;;;5095379;28;20446;-66
2023/03/25 08:47:41;;;;;;;4.60;1.77;;;10.20;99.90;;;;;;5095690;28;20462;-66
2023/03/25 08:50:09;;;;;;;7.63;3.00;;;10.30;99.90;;;;;;5094828;28;20928;-65
2023/03/25 08:52:35;;;;;;;5.38;2.55;;;10.30;99.90;;;;;;5094785;28;20574;-66
2023/03/25 08:55:02;;;;;;;2.67;1.70;;;10.30;99.90;;;;;;5094588;28;20200;-67
2023/03/25 08:57:29;;;;;;;1.73;1.52;;;10.20;99.90;;;;;;5096683;28;20446;-66
2023/03/25 08:59:56;;;;;;;2.57;1.80;;;10.00;99.90;;;;;;5096897;28;20279;-68
2023/03/25 09:02:24;;;;;;;4.10;2.07;;;9.80;99.90;;;;;;5096280;28;20448;-68
2023/03/25 09:04:51;;;;;;;2.90;1.75;;;9.70;99.90;;;;;;5096783;28;20443;-71
2023/03/25 09:07:18;;;;;;;2.58;1.75;;;9.60;99.90;;;;;;5099199;28;20283;-68
2023/03/25 09:09:45;;;;;;;1.83;1.73;;;9.60;99.90;;;;;;5098598;28;20574;-67
2023/03/25 09:12:12;;;;;;;2.57;1.67;;;9.60;99.90;;;;;;5097985;28;20222;-69
2023/03/25 09:14:39;;;;;;;4.67;2.37;;;9.70;99.90;;;;;;5098598;28;20553;-72
2023/03/25 09:17:06;;;;;;;3.78;2.10;;;9.70;99.90;;;;;;5101021;28;20452;-70
2023/03/25 09:19:36;;;;;;;5.10;2.30;;;9.90;99.90;;;;;;5100320;28;20222;-70
2023/03/25 09:22:03;;;;;;;2.27;2.07;;;10.00;99.90;;;;;;5097379;28;20434;-68
2023/03/25 09:24:32;;;;;;;2.80;2.20;;;10.00;99.90;;;;;;5099823;28;20478;-69
2023/03/25 09:27:00;;;;;;;9.60;2.63;;;9.90;99.90;;;;;;5098800;28;20529;-68
2023/03/25 09:29:27;;;;;;;2.47;2.28;;;9.80;99.90;;;;;;5098180;28;20665;-67
2023/03/25 09:31:54;;;;;;;3.53;1.80;;;9.80;99.90;;;;;;5099455;28;20216;-68
2023/03/25 09:34:20;;;;;;;2.95;2.10;;;9.70;99.90;;;;;;5097926;28;20462;-67
2023/03/25 09:36:49;;;;;;;2.85;2.10;;;9.80;99.90;;;;;;5096954;28;20200;-65
2023/03/25 09:39:16;;;;;;;5.47;2.33;;;9.80;99.90;;;;;;5097081;28;20299;-66
2023/03/25 09:42:00;;;;;;;3.70;2.13;;;9.90;99.90;;;;;;5096388;28;20441;-67
2023/03/25 09:44:30;;;;;;;3.90;2.50;;;10.00;99.90;;;;;;5097883;28;20466;-65
2023/03/25 09:47:01;;;;;;;3.67;2.53;;;10.10;99.90;;;;;;5095958;28;20446;-65
2023/03/25 09:49:37;;;;;;;2.80;2.17;;;10.20;99.90;;;;;;5096443;28;20442;-65
2023/03/25 09:52:07;;;;;;;3.27;2.30;;;10.30;99.90;;;;;;5096859;28;20466;-68
2023/03/25 09:54:38;;;;;;;4.30;2.50;;;10.40;99.90;;;;;;5096555;28;21013;-66
2023/03/25 09:57:09;;;;;;;3.20;2.50;;;10.50;99.90;;;;;;5097341;28;20486;-65
2023/03/25 09:59:42;;;;;;;3.30;2.67;;;10.60;99.90;;;;;;5099001;28;20437;-66
2023/03/25 10:02:27;;;;;;;3.00;2.70;;;10.70;99.90;;;;;;5096739;28;20423;-67
2023/03/25 10:05:11;;;;;;;2.87;2.60;;;10.80;99.90;;;;;;5096427;28;20435;-66
2023/03/25 10:07:49;;;;;;;9.73;2.67;;;11.00;99.90;;;;;;5097076;28;20431;-64
2023/03/25 10:10:25;;;;;;;3.67;2.80;;;11.20;99.90;;;;;;5097011;28;20434;-66
2023/03/25 10:13:01;;;;;;;7.00;3.00;;;11.50;99.90;;;;;;5098103;28;20553;-68
2023/03/25 10:15:35;;;;;;;5.27;2.80;;;11.70;99.90;;;;;;5099044;28;20518;-67
2023/03/25 10:18:20;;;;;;;4.00;3.10;;;12.00;99.90;;;;;;5099976;28;20436;-67
2023/03/25 10:20:53;;;;;;;2.90;2.30;;;12.20;99.90;;;;;;5098209;28;20439;-66
2023/03/25 10:23:26;;;;;;;3.10;2.80;;;12.30;99.90;;;;;;5096575;28;20482;-65
2023/03/25 10:25:57;;;;;;;3.10;2.43;;;12.40;99.40;;;;;;5111295;22;20484;-65
2023/03/25 10:28:29;;;;;;;2.93;2.70;;;12.40;97.70;;;;;;5055213;28;20445;-64
2023/03/25 10:30:56;;;;;;;2.80;2.50;;;12.40;97.30;;;;;;5053760;28;20443;-65
2023/03/25 10:33:31;;;;;;;4.40;2.40;;;12.40;96.80;;;;;;5054013;28;20801;-65
2023/03/25 10:36:00;;;;;;;4.40;2.43;;;12.40;96.50;;;;;;5053284;28;20470;-66
2023/03/25 10:38:29;;;;;;;3.73;2.10;;;12.60;95.80;;;;;;5053848;28;20513;-65
2023/03/25 10:41:05;;;;;;;4.37;2.10;;;12.80;94.60;;;;;;5054764;28;20444;-64
2023/03/25 10:43:35;;;;;;;4.00;2.47;;;12.90;93.00;;;;;;5057240;28;20460;-62
2023/03/25 10:46:12;;;;;;;4.30;2.30;;;13.00;92.30;;;;;;5059648;28;20476;-64
2023/03/25 10:48:39;;;;;;;4.00;2.83;;;13.10;91.10;;;;;;5057257;28;20420;-62
2023/03/25 10:51:10;;;;;;;4.10;3.10;;;13.10;89.50;;;;;;5056837;28;20964;-65
2023/03/25 10:53:40;;;;;;;7.17;3.50;;;13.00;86.40;;;;;;5087698;22;20864;-62
2023/03/25 10:56:12;;;;;;;7.40;2.90;;;12.90;84.50;;;;;;5095308;28;20431;-62
2023/03/25 10:58:42;;;;;;;3.00;2.70;;;12.80;84.00;;;;;;5094490;28;20786;-62
2023/03/25 11:01:12;;;;;;;3.90;2.50;;;12.70;82.70;;;;;;5094268;28;20434;-61
2023/03/25 11:03:40;;;;;;;12.00;3.20;;;12.70;83.20;;;;;;5094197;28;20465;-62
2023/03/25 11:06:13;;;;;;;4.13;2.87;;;12.60;81.20;;;;;;5094289;28;20591;-63
2023/03/25 11:08:56;;;;;;;5.83;3.93;;;12.50;80.40;;;;;;5094351;28;20423;-62
2023/03/25 11:11:31;;;;;;;6.43;3.10;;;12.40;80.00;;;;;;5094341;28;20430;-61
2023/03/25 11:13:58;;;;;;;4.63;2.33;;;12.40;79.50;;;;;;5094383;28;20491;-62
2023/03/25 11:16:25;;;;;;;9.43;2.67;;;12.40;79.10;;;;;;5094107;28;20546;-62
2023/03/25 11:18:53;;;;;;;6.30;3.00;;;12.40;79.40;;;;;;5094464;28;20816;-61
2023/03/25 11:21:21;;;;;;;7.37;2.67;;;12.40;80.10;;;;;;5094387;28;20451;-63
2023/03/25 11:23:51;;;;;;;5.30;3.10;;;12.40;79.60;;;;;;5094321;28;20467;-62
2023/03/25 11:26:21;;;;;;;3.83;2.00;;;12.40;78.70;;;;;;5094238;28;20442;-63
2023/03/25 11:28:51;;;;;;;3.57;2.70;;;12.50;77.50;;;;;;5095223;28;20445;-63
2023/03/25 11:31:20;;;;;;;8.50;2.87;;;12.50;76.80;;;;;;5098298;28;20438;-62
2023/03/25 11:34:03;;;;;;;6.43;3.20;;;12.70;76.40;;;;;;5098121;28;20466;-64
2023/03/25 11:36:31;;;;;;;7.13;2.70;;;12.80;75.00;;;;;;5098971;28;20419;-62
2023/03/25 11:39:03;;;;;;;6.60;2.63;;;12.70;73.90;;;;;;5094229;28;20567;-62
2023/03/25 11:41:32;;;;;;;3.50;2.17;;;12.60;74.00;;;;;;5094326;28;20510;-62
2023/03/25 11:43:59;;;;;;;3.60;2.83;;;12.50;73.50;;;;;;5094617;28;20561;-63
2023/03/25 11:46:26;;;;;;;7.30;3.03;;;12.50;74.10;;;;;;5093758;28;20452;-62
2023/03/25 11:48:53;;;;;;;4.23;3.10;;;12.60;74.50;;;;;;5093165;28;20447;-61
2023/03/25 11:51:22;;;;;;;4.20;2.37;;;12.60;74.40;;;;;;5093677;28;20443;-62
2023/03/25 11:53:55;;;;;;;5.33;3.27;;;12.60;74.10;;;;;;5093812;28;20470;-65
2023/03/25 11:56:27;;;;;;;3.20;2.27;;;12.50;74.20;;;;;;5094750;28;20422;-63
2023/03/25 11:58:58;;;;;;;3.80;2.40;;;12.60;74.70;;;;;;5093695;28;20933;-63
2023/03/25 12:01:28;;;;;;;6.53;3.00;;;12.80;74.90;;;;;;5093792;28;20184;-65
2023/03/25 12:04:13;;;;;;;4.83;2.97;;;12.90;73.40;;;;;;5093174;28;20971;-61
2023/03/25 12:06:53;;;;;;;5.60;2.30;;;12.90;72.40;;;;;;5093579;28;20427;-62
2023/03/25 12:09:20;;;;;;;5.10;3.00;;;12.80;72.10;;;;;;5094144;28;20434;-62
2023/03/25 12:12:10;;;;;;;6.30;3.50;;;12.70;72.70;;;;;;5094282;28;20453;-61
2023/03/25 12:14:55;;;;;;;5.43;2.60;;;12.60;73.70;;;;;;5092589;28;20489;-63
2023/03/25 12:17:30;;;;;;;3.87;2.47;;;12.70;74.60;;;;;;5096145;28;20434;-62
2023/03/25 12:20:14;;;;;;;6.00;2.90;;;12.70;74.60;;;;;;5098161;28;20860;-62
2023/03/25 12:22:53;;;;;;;3.90;3.00;;;12.70;74.20;;;;;;5093344;28;20922;-62
2023/03/25 12:25:28;;;;;;;7.40;3.13;;;12.90;75.00;;;;;;5095169;28;20793;-64
2023/03/25 12:28:18;;;;;;;5.13;2.70;;;13.10;74.00;;;;;;5094876;28;20442;-63
2023/03/25 12:30:57;;;;;;;3.93;2.70;;;13.10;72.90;;;;;;5094942;28;20787;-62
2023/03/25 12:33:34;;;;;;;2.87;2.57;;;12.90;72.50;;;;;;5098067;28;20481;-62
2023/03/25 12:36:17;;;;;;;4.03;2.47;;;12.70;73.10;;;;;;5097744;28;20427;-64
2023/03/25 12:38:53;;;;;;;6.47;3.00;;;12.60;74.30;;;;;;5097126;28;20983;-62
2023/03/25 12:41:22;;;;;;;4.00;2.43;;;12.50;74.90;;;;;;5098139;28;20794;-62
2023/03/25 12:44:00;;;;;;;4.40;2.33;;;12.40;75.70;;;;;;5097100;28;20463;-63
2023/03/25 12:46:45;;;;;;;3.03;2.70;;;12.50;76.00;;;;;;5097789;28;20438;-62
2023/03/25 12:49:26;;;;;;;4.57;2.80;;;12.50;76.10;;;;;;5096918;28;20895;-63
2023/03/25 12:52:02;;;;;;;3.80;1.90;;;12.60;76.30;;;;;;5097271;28;20423;-62
2023/03/25 12:54:51;;;;;;;3.07;2.17;;;12.70;76.80;;;;;;5096541;28;20470;-64
2023/03/25 12:57:37;;;;;;;4.60;2.30;;;12.90;77.10;;;;;;5096566;28;20985;-63
2023/03/25 13:00:37;;;;;;;3.27;2.60;;;13.10;75.80;;;;;;5098920;28;20431;-61
2023/03/25 13:03:35;;;;;;;2.63;2.00;;;13.10;75.20;;;;;;5096847;28;20462;-62
2023/03/25 13:06:13;;;;;;;2.93;2.30;;;13.00;75.70;;;;;;5096395;28;20922;-63
2023/03/25 13:08:46;;;;;;;2.77;2.57;;;13.10;76.20;;;;;;5096388;28;20431;-62
2023/03/25 13:11:18;;;;;;;2.63;1.97;;;13.20;75.70;;;;;;5097546;28;20915;-62
2023/03/25 13:13:49;;;;;;;5.00;2.13;;;13.30;75.30;;;;;;5097159;28;20482;-63